sensor_id;sensor_type;location;lat;lon;timestamp;P1;durP1;ratioP1;P2;durP2;ratioP2
19004;SDS011;9635;52.078;8.648;2023-06-14T00:02:58;4.30;;;2.70;;
19004;SDS011;9635;52.078;8.648;2023-06-14T00:08:02;4.53;;;2.88;;
19004;SDS011;9635;52.078;8.648;2023-06-14T00:13:06;4.15;;;2.42;;
19004;SDS011;9635;52.078;8.648;2023-06-14T00:18:11;7.82;;;2.83;;
19004;SDS011;9635;52.078;8.648;2023-06-14T00:23:14;9.18;;;3.38;;
19004;SDS011;9635;52.078;8.648;2023-06-14T00:28:17;4.65;;;2.60;;
19004;SDS011;9635;52.078;8.648;2023-06-14T00:33:21;8.20;;;2.60;;
19004;SDS011;9635;52.078;8.648;2023-06-14T00:38:26;4.03;;;2.20;;
19004;SDS011;9635;52.078;8.648;2023-06-14T00:43:29;5.55;;;2.65;;
19004;SDS011;9635;52.078;8.648;2023-06-14T00:48:33;5.07;;;2.80;;
19004;SDS011;9635;52.078;8.648;2023-06-14T00:53:40;2.97;;;2.30;;
19004;SDS011;9635;52.078;8.648;2023-06-14T00:58:47;2.95;;;2.65;;
19004;SDS011;9635;52.078;8.648;2023-06-14T01:03:52;4.35;;;2.33;;
19004;SDS011;9635;52.078;8.648;2023-06-14T01:08:57;5.97;;;2.60;;
19004;SDS011;9635;52.078;8.648;2023-06-14T01:14:06;5.30;;;2.65;;
19004;SDS011;9635;52.078;8.648;2023-06-14T01:19:11;5.57;;;2.80;;
19004;SDS011;9635;52.078;8.648;2023-06-14T01:24:17;3.42;;;2.45;;
19004;SDS011;9635;52.078;8.648;2023-06-14T01:29:21;6.60;;;2.75;;
19004;SDS011;9635;52.078;8.648;2023-06-14T01:34:26;5.43;;;2.90;;
19004;SDS011;9635;52.078;8.648;2023-06-14T01:39:30;6.88;;;2.42;;
19004;SDS011;9635;52.078;8.648;2023-06-14T01:44:34;5.30;;;2.40;;
19004;SDS011;9635;52.078;8.648;2023-06-14T01:49:38;3.95;;;2.40;;
19004;SDS011;9635;52.078;8.648;2023-06-14T01:54:44;2.80;;;2.13;;
19004;SDS011;9635;52.078;8.648;2023-06-14T01:59:46;5.47;;;2.65;;
19004;SDS011;9635;52.078;8.648;2023-06-14T02:04:50;5.82;;;2.75;;
19004;SDS011;9635;52.078;8.648;2023-06-14T02:09:55;3.65;;;2.47;;
19004;SDS011;9635;52.078;8.648;2023-06-14T02:14:58;5.72;;;2.50;;
19004;SDS011;9635;52.078;8.648;2023-06-14T02:20:00;3.65;;;2.47;;
19004;SDS011;9635;52.078;8.648;2023-06-14T02:25:06;6.03;;;2.25;;
19004;SDS011;9635;52.078;8.648;2023-06-14T02:30:10;3.72;;;2.58;;
19004;SDS011;9635;52.078;8.648;2023-06-14T02:35:14;3.67;;;2.22;;
19004;SDS011;9635;52.078;8.648;2023-06-14T02:40:19;3.70;;;2.70;;
19004;SDS011;9635;52.078;8.648;2023-06-14T02:45:21;5.93;;;2.50;;
19004;SDS011;9635;52.078;8.648;2023-06-14T02:50:24;3.60;;;2.50;;
19004;SDS011;9635;52.078;8.648;2023-06-14T02:55:31;2.55;;;2.30;;
19004;SDS011;9635;52.078;8.648;2023-06-14T03:00:34;3.95;;;2.75;;
19004;SDS011;9635;52.078;8.648;2023-06-14T03:05:37;5.13;;;2.60;;
19004;SDS011;9635;52.078;8.648;2023-06-14T03:10:43;4.00;;;2.70;;
19004;SDS011;9635;52.078;8.648;2023-06-14T03:15:47;4.97;;;2.63;;
19004;SDS011;9635;52.078;8.648;2023-06-14T03:20:51;5.22;;;2.50;;
19004;SDS011;9635;52.078;8.648;2023-06-14T03:25:56;4.38;;;2.97;;
19004;SDS011;9635;52.078;8.648;2023-06-14T03:31:00;3.03;;;2.30;;
19004;SDS011;9635;52.078;8.648;2023-06-14T03:36:06;3.17;;;2.30;;
19004;SDS011;9635;52.078;8.648;2023-06-14T03:41:10;4.50;;;2.35;;
19004;SDS011;9635;52.078;8.648;2023-06-14T03:46:14;3.65;;;2.63;;
19004;SDS011;9635;52.078;8.648;2023-06-14T03:51:16;2.53;;;2.33;;
19004;SDS011;9635;52.078;8.648;2023-06-14T03:56:21;4.45;;;2.50;;
19004;SDS011;9635;52.078;8.648;2023-06-14T04:01:24;6.22;;;2.95;;
19004;SDS011;9635;52.078;8.648;2023-06-14T04:06:34;2.97;;;2.50;;
19004;SDS011;9635;52.078;8.648;2023-06-14T04:11:40;3.58;;;3.05;;
19004;SDS011;9635;52.078;8.648;2023-06-14T04:16:42;6.95;;;2.75;;
19004;SDS011;9635;52.078;8.648;2023-06-14T04:21:45;6.15;;;2.58;;
19004;SDS011;9635;52.078;8.648;2023-06-14T04:26:51;4.18;;;2.80;;
19004;SDS011;9635;52.078;8.648;2023-06-14T04:31:55;3.00;;;2.50;;
19004;SDS011;9635;52.078;8.648;2023-06-14T04:37:01;5.10;;;2.58;;
19004;SDS011;9635;52.078;8.648;2023-06-14T04:42:11;2.78;;;2.28;;
19004;SDS011;9635;52.078;8.648;2023-06-14T04:47:14;8.10;;;2.78;;
19004;SDS011;9635;52.078;8.648;2023-06-14T04:52:18;4.20;;;2.70;;
19004;SDS011;9635;52.078;8.648;2023-06-14T04:57:24;2.88;;;2.47;;
19004;SDS011;9635;52.078;8.648;2023-06-14T05:02:30;4.50;;;2.42;;
19004;SDS011;9635;52.078;8.648;2023-06-14T05:07:34;6.45;;;2.17;;
19004;SDS011;9635;52.078;8.648;2023-06-14T05:12:42;3.38;;;2.28;;
19004;SDS011;9635;52.078;8.648;2023-06-14T05:17:52;6.80;;;2.25;;
19004;SDS011;9635;52.078;8.648;2023-06-14T05:22:56;4.03;;;1.90;;
19004;SDS011;9635;52.078;8.648;2023-06-14T05:28:01;9.68;;;2.10;;
19004;SDS011;9635;52.078;8.648;2023-06-14T05:33:04;2.83;;;1.80;;
19004;SDS011;9635;52.078;8.648;2023-06-14T05:38:07;3.50;;;2.22;;
19004;SDS011;9635;52.078;8.648;2023-06-14T05:43:11;2.72;;;2.00;;
19004;SDS011;9635;52.078;8.648;2023-06-14T05:48:14;2.03;;;1.80;;
19004;SDS011;9635;52.078;8.648;2023-06-14T05:53:17;2.45;;;1.50;;
19004;SDS011;9635;52.078;8.648;2023-06-14T05:58:21;3.05;;;2.15;;
19004;SDS011;9635;52.078;8.648;2023-06-14T06:09:11;2.10;;;1.90;;
19004;SDS011;9635;52.078;8.648;2023-06-14T06:14:16;4.55;;;1.90;;
19004;SDS011;9635;52.078;8.648;2023-06-14T06:19:19;2.63;;;2.10;;
19004;SDS011;9635;52.078;8.648;2023-06-14T06:24:22;3.60;;;1.80;;
19004;SDS011;9635;52.078;8.648;2023-06-14T06:29:26;1.80;;;1.20;;
19004;SDS011;9635;52.078;8.648;2023-06-14T06:34:29;4.30;;;1.70;;
19004;SDS011;9635;52.078;8.648;2023-06-14T06:39:32;2.80;;;1.80;;
19004;SDS011;9635;52.078;8.648;2023-06-14T06:44:36;2.28;;;1.50;;
19004;SDS011;9635;52.078;8.648;2023-06-14T06:49:39;2.85;;;1.58;;
19004;SDS011;9635;52.078;8.648;2023-06-14T06:54:41;5.53;;;1.40;;
19004;SDS011;9635;52.078;8.648;2023-06-14T06:59:46;2.35;;;1.40;;
19004;SDS011;9635;52.078;8.648;2023-06-14T07:04:48;4.43;;;1.20;;
19004;SDS011;9635;52.078;8.648;2023-06-14T07:09:51;2.85;;;1.50;;
19004;SDS011;9635;52.078;8.648;2023-06-14T07:14:56;2.28;;;1.20;;
19004;SDS011;9635;52.078;8.648;2023-06-14T07:20:03;1.70;;;1.33;;
19004;SDS011;9635;52.078;8.648;2023-06-14T07:25:13;3.65;;;1.65;;
19004;SDS011;9635;52.078;8.648;2023-06-14T07:30:18;3.05;;;2.60;;
19004;SDS011;9635;52.078;8.648;2023-06-14T07:35:21;3.90;;;1.77;;
19004;SDS011;9635;52.078;8.648;2023-06-14T07:40:24;4.95;;;1.90;;
19004;SDS011;9635;52.078;8.648;2023-06-14T07:45:28;4.97;;;1.40;;
19004;SDS011;9635;52.078;8.648;2023-06-14T07:50:31;1.88;;;1.73;;
19004;SDS011;9635;52.078;8.648;2023-06-14T07:55:34;2.78;;;2.47;;
19004;SDS011;9635;52.078;8.648;2023-06-14T08:00:55;3.20;;;1.48;;
19004;SDS011;9635;52.078;8.648;2023-06-14T08:05:57;3.10;;;1.55;;
19004;SDS011;9635;52.078;8.648;2023-06-14T08:11:02;4.20;;;1.73;;
19004;SDS011;9635;52.078;8.648;2023-06-14T08:16:06;2.72;;;1.48;;
19004;SDS011;9635;52.078;8.648;2023-06-14T08:21:09;2.00;;;1.48;;
19004;SDS011;9635;52.078;8.648;2023-06-14T08:26:12;2.45;;;1.48;;
19004;SDS011;9635;52.078;8.648;2023-06-14T08:31:16;1.48;;;1.38;;
19004;SDS011;9635;52.078;8.648;2023-06-14T08:36:19;1.85;;;1.52;;
19004;SDS011;9635;52.078;8.648;2023-06-14T08:41:22;4.72;;;1.60;;
19004;SDS011;9635;52.078;8.648;2023-06-14T08:46:27;9.20;;;1.55;;
19004;SDS011;9635;52.078;8.648;2023-06-14T08:51:31;4.50;;;1.55;;
19004;SDS011;9635;52.078;8.648;2023-06-14T08:56:35;1.45;;;1.30;;
19004;SDS011;9635;52.078;8.648;2023-06-14T09:01:44;1.50;;;1.40;;
19004;SDS011;9635;52.078;8.648;2023-06-14T09:07:08;2.65;;;1.33;;
19004;SDS011;9635;52.078;8.648;2023-06-14T09:12:11;1.65;;;1.40;;
19004;SDS011;9635;52.078;8.648;2023-06-14T09:17:15;2.00;;;1.58;;
19004;SDS011;9635;52.078;8.648;2023-06-14T09:22:18;3.30;;;1.90;;
19004;SDS011;9635;52.078;8.648;2023-06-14T09:27:21;1.95;;;1.63;;
19004;SDS011;9635;52.078;8.648;2023-06-14T09:32:25;3.75;;;1.50;;
19004;SDS011;9635;52.078;8.648;2023-06-14T09:37:28;3.38;;;1.35;;
19004;SDS011;9635;52.078;8.648;2023-06-14T09:42:32;2.97;;;1.30;;
19004;SDS011;9635;52.078;8.648;2023-06-14T09:47:38;1.92;;;1.50;;
19004;SDS011;9635;52.078;8.648;2023-06-14T09:52:58;3.30;;;1.67;;
19004;SDS011;9635;52.078;8.648;2023-06-14T09:58:06;2.42;;;1.30;;
19004;SDS011;9635;52.078;8.648;2023-06-14T10:03:16;3.00;;;1.60;;
19004;SDS011;9635;52.078;8.648;2023-06-14T10:08:24;3.60;;;1.50;;
19004;SDS011;9635;52.078;8.648;2023-06-14T10:13:31;3.67;;;1.63;;
19004;SDS011;9635;52.078;8.648;2023-06-14T10:18:39;4.68;;;1.58;;
19004;SDS011;9635;52.078;8.648;2023-06-14T10:23:47;2.45;;;1.75;;
19004;SDS011;9635;52.078;8.648;2023-06-14T10:28:56;2.95;;;1.70;;
19004;SDS011;9635;52.078;8.648;2023-06-14T10:34:02;4.00;;;1.60;;
19004;SDS011;9635;52.078;8.648;2023-06-14T10:39:06;2.42;;;2.20;;
19004;SDS011;9635;52.078;8.648;2023-06-14T10:49:43;3.53;;;1.57;;
19004;SDS011;9635;52.078;8.648;2023-06-14T10:55:07;3.63;;;1.90;;
19004;SDS011;9635;52.078;8.648;2023-06-14T11:00:13;2.95;;;1.58;;
19004;SDS011;9635;52.078;8.648;2023-06-14T11:05:25;4.00;;;1.50;;
19004;SDS011;9635;52.078;8.648;2023-06-14T11:10:32;2.13;;;1.48;;
19004;SDS011;9635;52.078;8.648;2023-06-14T11:15:38;1.90;;;1.65;;
19004;SDS011;9635;52.078;8.648;2023-06-14T11:20:47;4.45;;;1.80;;
19004;SDS011;9635;52.078;8.648;2023-06-14T11:25:50;2.47;;;2.20;;
19004;SDS011;9635;52.078;8.648;2023-06-14T11:30:59;2.15;;;2.00;;
19004;SDS011;9635;52.078;8.648;2023-06-14T11:36:05;2.05;;;1.85;;
19004;SDS011;9635;52.078;8.648;2023-06-14T11:41:10;2.28;;;2.10;;
19004;SDS011;9635;52.078;8.648;2023-06-14T11:46:13;2.88;;;2.05;;
19004;SDS011;9635;52.078;8.648;2023-06-14T11:51:19;3.00;;;1.88;;
19004;SDS011;9635;52.078;8.648;2023-06-14T11:56:23;2.30;;;2.00;;
19004;SDS011;9635;52.078;8.648;2023-06-14T12:01:26;4.75;;;2.10;;
19004;SDS011;9635;52.078;8.648;2023-06-14T12:06:31;2.45;;;1.80;;
19004;SDS011;9635;52.078;8.648;2023-06-14T12:11:37;2.10;;;1.90;;
19004;SDS011;9635;52.078;8.648;2023-06-14T12:16:41;4.13;;;1.90;;
19004;SDS011;9635;52.078;8.648;2023-06-14T12:21:46;3.45;;;1.52;;
19004;SDS011;9635;52.078;8.648;2023-06-14T12:26:51;1.73;;;1.35;;
19004;SDS011;9635;52.078;8.648;2023-06-14T12:31:54;1.42;;;1.30;;
19004;SDS011;9635;52.078;8.648;2023-06-14T12:36:59;3.67;;;1.40;;
19004;SDS011;9635;52.078;8.648;2023-06-14T12:42:02;2.92;;;1.63;;
19004;SDS011;9635;52.078;8.648;2023-06-14T12:47:06;5.15;;;1.60;;
19004;SDS011;9635;52.078;8.648;2023-06-14T12:52:10;2.55;;;1.40;;
19004;SDS011;9635;52.078;8.648;2023-06-14T12:57:13;3.15;;;1.50;;
19004;SDS011;9635;52.078;8.648;2023-06-14T13:02:17;1.77;;;1.67;;
19004;SDS011;9635;52.078;8.648;2023-06-14T13:07:27;1.48;;;1.38;;
19004;SDS011;9635;52.078;8.648;2023-06-14T13:12:30;2.42;;;1.40;;
19004;SDS011;9635;52.078;8.648;2023-06-14T13:17:33;2.45;;;2.15;;
19004;SDS011;9635;52.078;8.648;2023-06-14T13:22:41;2.33;;;1.77;;
19004;SDS011;9635;52.078;8.648;2023-06-14T13:27:44;5.60;;;1.67;;
19004;SDS011;9635;52.078;8.648;2023-06-14T13:32:47;5.28;;;1.60;;
19004;SDS011;9635;52.078;8.648;2023-06-14T13:37:52;1.80;;;1.70;;
19004;SDS011;9635;52.078;8.648;2023-06-14T13:42:55;4.43;;;2.00;;
19004;SDS011;9635;52.078;8.648;2023-06-14T13:47:58;2.42;;;1.60;;
19004;SDS011;9635;52.078;8.648;2023-06-14T13:53:03;5.68;;;2.08;;
19004;SDS011;9635;52.078;8.648;2023-06-14T13:58:06;3.08;;;2.47;;
19004;SDS011;9635;52.078;8.648;2023-06-14T14:03:09;2.15;;;2.03;;
19004;SDS011;9635;52.078;8.648;2023-06-14T14:08:13;6.35;;;2.10;;
19004;SDS011;9635;52.078;8.648;2023-06-14T14:13:16;6.38;;;2.08;;
19004;SDS011;9635;52.078;8.648;2023-06-14T14:18:19;2.33;;;2.13;;
19004;SDS011;9635;52.078;8.648;2023-06-14T14:23:24;2.80;;;2.20;;
19004;SDS011;9635;52.078;8.648;2023-06-14T14:28:27;3.15;;;2.15;;
19004;SDS011;9635;52.078;8.648;2023-06-14T14:33:30;3.55;;;2.28;;
19004;SDS011;9635;52.078;8.648;2023-06-14T14:38:34;2.50;;;2.28;;
19004;SDS011;9635;52.078;8.648;2023-06-14T14:43:37;2.85;;;2.15;;
19004;SDS011;9635;52.078;8.648;2023-06-14T14:48:40;7.65;;;2.03;;
19004;SDS011;9635;52.078;8.648;2023-06-14T14:53:44;4.82;;;2.38;;
19004;SDS011;9635;52.078;8.648;2023-06-14T14:58:47;5.28;;;2.45;;
19004;SDS011;9635;52.078;8.648;2023-06-14T15:03:51;5.80;;;2.60;;
19004;SDS011;9635;52.078;8.648;2023-06-14T15:09:01;2.60;;;2.40;;
19004;SDS011;9635;52.078;8.648;2023-06-14T15:14:04;4.90;;;2.65;;
19004;SDS011;9635;52.078;8.648;2023-06-14T15:19:07;4.10;;;2.92;;
19004;SDS011;9635;52.078;8.648;2023-06-14T15:24:11;5.32;;;2.78;;
19004;SDS011;9635;52.078;8.648;2023-06-14T15:29:14;5.03;;;3.08;;
19004;SDS011;9635;52.078;8.648;2023-06-14T15:34:17;9.77;;;3.15;;
19004;SDS011;9635;52.078;8.648;2023-06-14T15:39:21;7.15;;;2.95;;
19004;SDS011;9635;52.078;8.648;2023-06-14T15:44:25;6.72;;;3.05;;
19004;SDS011;9635;52.078;8.648;2023-06-14T15:49:29;5.28;;;2.63;;
19004;SDS011;9635;52.078;8.648;2023-06-14T15:54:33;5.88;;;2.88;;
19004;SDS011;9635;52.078;8.648;2023-06-14T15:59:36;3.33;;;2.90;;
19004;SDS011;9635;52.078;8.648;2023-06-14T16:04:38;4.00;;;2.80;;
19004;SDS011;9635;52.078;8.648;2023-06-14T16:09:43;5.15;;;2.72;;
19004;SDS011;9635;52.078;8.648;2023-06-14T16:14:46;3.95;;;2.53;;
19004;SDS011;9635;52.078;8.648;2023-06-14T16:19:49;6.95;;;2.90;;
19004;SDS011;9635;52.078;8.648;2023-06-14T16:24:53;6.47;;;3.42;;
19004;SDS011;9635;52.078;8.648;2023-06-14T16:29:56;3.97;;;3.10;;
19004;SDS011;9635;52.078;8.648;2023-06-14T16:34:58;3.97;;;2.97;;
19004;SDS011;9635;52.078;8.648;2023-06-14T16:40:03;3.28;;;2.80;;
19004;SDS011;9635;52.078;8.648;2023-06-14T16:45:07;6.82;;;2.90;;
19004;SDS011;9635;52.078;8.648;2023-06-14T16:50:10;3.83;;;2.60;;
19004;SDS011;9635;52.078;8.648;2023-06-14T16:55:15;8.30;;;4.15;;
19004;SDS011;9635;52.078;8.648;2023-06-14T17:00:18;6.80;;;3.08;;
19004;SDS011;9635;52.078;8.648;2023-06-14T17:05:21;6.10;;;2.88;;
19004;SDS011;9635;52.078;8.648;2023-06-14T17:10:26;3.13;;;2.58;;
19004;SDS011;9635;52.078;8.648;2023-06-14T17:15:29;5.90;;;2.90;;
19004;SDS011;9635;52.078;8.648;2023-06-14T17:20:32;3.97;;;2.88;;
19004;SDS011;9635;52.078;8.648;2023-06-14T17:25:36;6.03;;;2.83;;
19004;SDS011;9635;52.078;8.648;2023-06-14T17:30:39;3.22;;;2.90;;
19004;SDS011;9635;52.078;8.648;2023-06-14T17:35:42;6.30;;;3.03;;
19004;SDS011;9635;52.078;8.648;2023-06-14T17:40:46;3.78;;;2.80;;
19004;SDS011;9635;52.078;8.648;2023-06-14T17:45:51;4.88;;;3.10;;
19004;SDS011;9635;52.078;8.648;2023-06-14T17:50:54;4.07;;;2.83;;
19004;SDS011;9635;52.078;8.648;2023-06-14T17:55:58;4.45;;;2.72;;
19004;SDS011;9635;52.078;8.648;2023-06-14T18:01:03;4.38;;;2.95;;
19004;SDS011;9635;52.078;8.648;2023-06-14T18:06:06;5.53;;;3.33;;
19004;SDS011;9635;52.078;8.648;2023-06-14T18:11:10;7.70;;;3.55;;
19004;SDS011;9635;52.078;8.648;2023-06-14T18:16:13;4.63;;;3.42;;
19004;SDS011;9635;52.078;8.648;2023-06-14T18:21:17;9.55;;;3.40;;
19004;SDS011;9635;52.078;8.648;2023-06-14T18:26:24;8.85;;;3.47;;
19004;SDS011;9635;52.078;8.648;2023-06-14T18:31:28;9.60;;;3.20;;
19004;SDS011;9635;52.078;8.648;2023-06-14T18:36:31;6.03;;;3.42;;
19004;SDS011;9635;52.078;8.648;2023-06-14T18:41:36;9.35;;;3.88;;
19004;SDS011;9635;52.078;8.648;2023-06-14T18:46:40;4.53;;;4.07;;
19004;SDS011;9635;52.078;8.648;2023-06-14T18:51:44;3.97;;;3.38;;
19004;SDS011;9635;52.078;8.648;2023-06-14T18:56:48;5.93;;;3.28;;
19004;SDS011;9635;52.078;8.648;2023-06-14T19:01:51;5.28;;;3.30;;
19004;SDS011;9635;52.078;8.648;2023-06-14T19:06:55;9.13;;;4.00;;
19004;SDS011;9635;52.078;8.648;2023-06-14T19:12:00;8.02;;;3.22;;
19004;SDS011;9635;52.078;8.648;2023-06-14T19:17:03;9.05;;;4.25;;
19004;SDS011;9635;52.078;8.648;2023-06-14T19:22:08;6.03;;;3.65;;
19004;SDS011;9635;52.078;8.648;2023-06-14T19:27:12;5.32;;;3.90;;
19004;SDS011;9635;52.078;8.648;2023-06-14T19:32:15;4.25;;;3.20;;
19004;SDS011;9635;52.078;8.648;2023-06-14T19:37:18;5.38;;;3.65;;
19004;SDS011;9635;52.078;8.648;2023-06-14T19:42:22;7.13;;;3.42;;
19004;SDS011;9635;52.078;8.648;2023-06-14T19:47:25;5.65;;;3.63;;
19004;SDS011;9635;52.078;8.648;2023-06-14T19:52:28;4.50;;;3.30;;
19004;SDS011;9635;52.078;8.648;2023-06-14T19:57:32;5.85;;;3.88;;
19004;SDS011;9635;52.078;8.648;2023-06-14T20:02:35;7.28;;;3.67;;
19004;SDS011;9635;52.078;8.648;2023-06-14T20:07:38;6.78;;;3.78;;
19004;SDS011;9635;52.078;8.648;2023-06-14T20:12:42;5.93;;;3.40;;
19004;SDS011;9635;52.078;8.648;2023-06-14T20:17:46;5.90;;;3.53;;
19004;SDS011;9635;52.078;8.648;2023-06-14T20:22:49;4.07;;;3.70;;
19004;SDS011;9635;52.078;8.648;2023-06-14T20:27:53;6.13;;;4.13;;
19004;SDS011;9635;52.078;8.648;2023-06-14T20:32:56;6.53;;;3.92;;
19004;SDS011;9635;52.078;8.648;2023-06-14T20:37:59;6.00;;;3.55;;
19004;SDS011;9635;52.078;8.648;2023-06-14T20:43:04;5.85;;;3.78;;
19004;SDS011;9635;52.078;8.648;2023-06-14T20:48:08;6.80;;;4.13;;
19004;SDS011;9635;52.078;8.648;2023-06-14T20:53:12;7.35;;;3.83;;
19004;SDS011;9635;52.078;8.648;2023-06-14T20:58:16;7.95;;;4.32;;
19004;SDS011;9635;52.078;8.648;2023-06-14T21:03:19;7.95;;;4.50;;
19004;SDS011;9635;52.078;8.648;2023-06-14T21:08:23;6.80;;;3.75;;
19004;SDS011;9635;52.078;8.648;2023-06-14T21:13:27;6.40;;;3.65;;
19004;SDS011;9635;52.078;8.648;2023-06-14T21:18:30;7.85;;;3.75;;
19004;SDS011;9635;52.078;8.648;2023-06-14T21:23:33;4.60;;;3.72;;
19004;SDS011;9635;52.078;8.648;2023-06-14T21:28:37;4.57;;;3.92;;
19004;SDS011;9635;52.078;8.648;2023-06-14T21:33:40;4.85;;;4.00;;
19004;SDS011;9635;52.078;8.648;2023-06-14T21:38:43;5.43;;;3.80;;
19004;SDS011;9635;52.078;8.648;2023-06-14T21:43:47;4.38;;;3.58;;
19004;SDS011;9635;52.078;8.648;2023-06-14T21:48:50;5.38;;;3.85;;
19004;SDS011;9635;52.078;8.648;2023-06-14T21:53:54;4.85;;;3.92;;
19004;SDS011;9635;52.078;8.648;2023-06-14T21:58:59;7.97;;;3.47;;
19004;SDS011;9635;52.078;8.648;2023-06-14T22:04:02;7.75;;;4.22;;
19004;SDS011;9635;52.078;8.648;2023-06-14T22:09:05;5.35;;;3.60;;
19004;SDS011;9635;52.078;8.648;2023-06-14T22:14:09;9.82;;;4.28;;
19004;SDS011;9635;52.078;8.648;2023-06-14T22:19:12;5.75;;;4.15;;
19004;SDS011;9635;52.078;8.648;2023-06-14T22:24:16;7.18;;;4.18;;
19004;SDS011;9635;52.078;8.648;2023-06-14T22:29:21;7.00;;;4.25;;
19004;SDS011;9635;52.078;8.648;2023-06-14T22:34:24;7.30;;;4.43;;
19004;SDS011;9635;52.078;8.648;2023-06-14T22:39:27;7.47;;;4.22;;
19004;SDS011;9635;52.078;8.648;2023-06-14T22:44:31;9.52;;;4.20;;
19004;SDS011;9635;52.078;8.648;2023-06-14T22:49:35;9.27;;;4.13;;
19004;SDS011;9635;52.078;8.648;2023-06-14T22:54:40;5.40;;;4.22;;
19004;SDS011;9635;52.078;8.648;2023-06-14T22:59:47;8.18;;;4.38;;
19004;SDS011;9635;52.078;8.648;2023-06-14T23:04:49;8.32;;;4.85;;
19004;SDS011;9635;52.078;8.648;2023-06-14T23:09:52;4.50;;;4.10;;
19004;SDS011;9635;52.078;8.648;2023-06-14T23:14:59;5.57;;;4.00;;
19004;SDS011;9635;52.078;8.648;2023-06-14T23:20:04;4.85;;;3.97;;
19004;SDS011;9635;52.078;8.648;2023-06-14T23:25:09;5.10;;;3.97;;
19004;SDS011;9635;52.078;8.648;2023-06-14T23:30:16;7.28;;;4.65;;
19004;SDS011;9635;52.078;8.648;2023-06-14T23:35:20;4.40;;;4.00;;
19004;SDS011;9635;52.078;8.648;2023-06-14T23:40:24;7.68;;;4.72;;
19004;SDS011;9635;52.078;8.648;2023-06-14T23:45:30;6.57;;;4.28;;
19004;SDS011;9635;52.078;8.648;2023-06-14T23:50:35;6.78;;;4.18;;
19004;SDS011;9635;52.078;8.648;2023-06-14T23:55:38;7.15;;;4.13;;
